• Join FlightAware (Why Join?)
  • Login
  • US Flag 
04:45AM EDT


 

Airport Tracker/Info


-or-


 

Live Flight TrackerFlight Track Log ✈ N9769H ✈ 30-Apr-2013 ✈ KMEM - KOSX

Flight Track Log - Related Links

Times and Time Zones

All times are in EDT time to prevent confusion due to time zone crossing. See the N9769H flight status page for this flight to view local times or setup timezone preferences in your user account.

Time Position Orientation Groundspeed Altitude Reporting Facility
EDT Latitude Longitude Course Direction KTS MPH feet Rate Location/Type
11:39AM 34.6447 -89.7211 169° South 121 139 5,000  Level Memphis Center
11:40AM 34.6156 -89.7161 172° South 114 131 5,400 240 Climbing Memphis Center
11:41AM 34.5822 -89.7114 173° South 120 138 5,500  Climbing Memphis Center
11:42AM 34.5467 -89.7092 177° South 125 144 5,500  Level Memphis Center
11:43AM 34.5111 -89.7044 174° South 130 150 5,500  Level Memphis Center
11:44AM 34.5200 -89.8583 169° South  Level Estimated
11:44AM 34.4736 -89.6994 174° South 130 150 5,500  Level Memphis Center
11:45AM 34.4358 -89.6972 177° South 130 150 5,500  Level Memphis Center
11:46AM 34.3983 -89.6925 174° South 130 150 5,500  Level Memphis Center
11:47AM 34.3608 -89.6853 171° South 130 150 5,500  Level Memphis Center
11:48AM 34.3253 -89.6806 174° South 130 150 5,500  Level Memphis Center
11:49AM 34.2919 -89.6783 177° South 130 150 5,500  Level Memphis Center
11:50AM 34.2542 -89.6736 174° South 130 150 5,500 -60 Level Memphis Center
11:51AM 34.2189 -89.6689 174° South 125 144 5,400  Descending Memphis Center
11:52AM 34.1853 -89.6667 177° South 125 144 5,500  Climbing Memphis Center
11:53AM 34.1478 -89.6619 174° South 125 144 5,500  Level Memphis Center
11:54AM 34.1122 -89.6597 177° South 125 144 5,500  Level Memphis Center
11:55AM 34.0789 -89.6550 173° South 125 144 5,500  Level Memphis Center
11:56AM 34.0456 -89.6503 173° South 125 144 5,500  Level Memphis Center
11:57AM 34.0078 -89.6431 171° South 125 144 5,500  Level Memphis Center
11:58AM 33.9703 -89.6358 171° South 125 144 5,500  Level Memphis Center
11:59AM 33.9367 -89.6311 173° South 125 144 5,500  Level Memphis Center
12:00PM 33.9014 -89.6264 174° South 125 144 5,500  Level Memphis Center
12:01PM 33.8617 -89.6192 171° South 125 144 5,500  Level Memphis Center
12:02PM 33.8261 -89.6169 177° South 130 150 5,500  Level Memphis Center
12:03PM 33.7928 -89.6247 191° South 130 150 5,600  Climbing Memphis Center
12:04PM 33.7594 -89.6250 180° South 130 150 5,600  Level Memphis Center
12:05PM 33.7217 -89.6231 178° South 130 150 5,600 -180 Level Memphis Center
12:06PM 33.6864 -89.6183 174° South 130 150 5,300 -480 Descending Memphis Center
12:07PM 33.6486 -89.6111 171° South 136 157 4,700 -660 Descending Memphis Center
12:08PM 33.6089 -89.6114 180° South 142 163 4,000 -720 Descending Memphis Center